Time;durP1;ratioP1;P1;durP2;ratioP2;P2;SDS_P1;SDS_P2;PMS_P1;PMS_P2;Temp;Humidity;BMP_temperature;BMP_pressure;BME280_temperature;BME280_humidity;BME280_pressure;Samples;Min_cycle;Max_cycle;Signal;HPM_P1;HPM_P2
2024/01/24 00:00:07;;;;;;;4.53;2.10;;;;;;;;;;4943466;28;20055;-82
2024/01/24 00:02:33;;;;;;;2.80;2.00;;;;;;;;;;4955314;28;20043;-83
2024/01/24 00:04:58;;;;;;;4.07;1.85;;;;;;;;;;4954808;28;20547;-83
2024/01/24 00:07:24;;;;;;;4.70;2.00;;;;;;;;;;4944235;28;20043;-82
2024/01/24 00:09:49;;;;;;;4.18;1.90;;;;;;;;;;4953878;28;20499;-80
2024/01/24 00:12:15;;;;;;;3.95;2.03;;;;;;;;;;4952650;28;20046;-83
2024/01/24 00:14:40;;;;;;;2.65;1.88;;;;;;;;;;4942847;29;20049;-85
2024/01/24 00:17:05;;;;;;;3.45;1.98;;;;;;;;;;4957189;28;20050;-82
2024/01/24 00:19:31;;;;;;;5.30;2.03;;;;;;;;;;4937279;28;20535;-83
2024/01/24 00:21:56;;;;;;;3.15;1.67;;;;;;;;;;4941176;28;20638;-83
2024/01/24 00:24:25;;;;;;;5.45;1.50;;;;;;;;;;4944361;28;20718;-84
2024/01/24 00:26:50;;;;;;;2.40;1.35;;;;;;;;;;4938735;28;20043;-81
2024/01/24 00:29:16;;;;;;;3.72;1.90;;;;;;;;;;4940268;28;20521;-84
2024/01/24 00:31:41;;;;;;;3.05;1.63;;;;;;;;;;4960072;28;20051;-84
2024/01/24 00:34:07;;;;;;;2.90;1.60;;;;;;;;;;4951579;28;20031;-81
2024/01/24 00:36:32;;;;;;;4.03;1.63;;;;;;;;;;4940684;28;20057;-85
2024/01/24 00:38:57;;;;;;;2.80;1.50;;;;;;;;;;4950663;28;20039;-82
2024/01/24 00:41:23;;;;;;;2.17;1.35;;;;;;;;;;4959509;28;20050;-84
2024/01/24 00:43:48;;;;;;;2.13;1.42;;;;;;;;;;4959791;28;20050;-83
2024/01/24 00:46:14;;;;;;;2.95;1.30;;;;;;;;;;4951896;28;20042;-83
2024/01/24 00:48:40;;;;;;;1.45;1.35;;;;;;;;;;4959428;28;20034;-88
2024/01/24 00:51:05;;;;;;;3.38;1.20;;;;;;;;;;4934776;28;20042;-83
2024/01/24 00:53:33;;;;;;;2.95;1.40;;;;;;;;;;4962281;28;20057;-86
2024/01/24 00:55:59;;;;;;;2.15;1.30;;;;;;;;;;4963621;28;20185;-82
2024/01/24 00:58:24;;;;;;;2.03;1.40;;;;;;;;;;4954437;28;20136;-81
2024/01/24 01:00:50;;;;;;;2.53;1.33;;;;;;;;;;4948126;28;20035;-83
2024/01/24 01:03:16;;;;;;;2.67;1.70;;;;;;;;;;4935005;29;20050;-83
2024/01/24 01:05:41;;;;;;;2.30;1.70;;;;;;;;;;4941254;28;20039;-82
2024/01/24 01:08:07;;;;;;;2.17;1.58;;;;;;;;;;4962049;28;20054;-84
2024/01/24 01:10:33;;;;;;;2.78;1.77;;;;;;;;;;4941189;28;20128;-85
2024/01/24 01:12:59;;;;;;;3.42;1.77;;;;;;;;;;4943265;28;20054;-84
2024/01/24 01:15:24;;;;;;;2.05;1.70;;;;;;;;;;4953977;28;20095;-83
2024/01/24 01:17:50;;;;;;;4.28;1.88;;;;;;;;;;4938811;28;20090;-84
2024/01/24 01:20:19;;;;;;;3.35;1.77;;;;;;;;;;4950888;28;20038;-83
2024/01/24 01:22:45;;;;;;;1.88;1.40;;;;;;;;;;4944297;28;20035;-83
2024/01/24 01:25:10;;;;;;;1.73;1.40;;;;;;;;;;4943088;28;20035;-85
2024/01/24 01:27:36;;;;;;;1.73;1.52;;;;;;;;;;4964246;28;20027;-83
2024/01/24 01:30:01;;;;;;;1.98;1.33;;;;;;;;;;4952871;28;20579;-82
2024/01/24 01:32:27;;;;;;;2.72;1.33;;;;;;;;;;4943212;29;20042;-83
2024/01/24 01:34:54;;;;;;;2.22;1.40;;;;;;;;;;4939398;28;20050;-82
2024/01/24 01:37:23;;;;;;;2.97;1.50;;;;;;;;;;4960253;28;20058;-84
2024/01/24 01:39:49;;;;;;;1.83;1.30;;;;;;;;;;4942097;28;20031;-81
2024/01/24 01:42:15;;;;;;;1.77;1.30;;;;;;;;;;4965423;28;20039;-83
2024/01/24 01:44:48;;;;;;;2.50;1.60;;;;;;;;;;4937260;28;20046;-81
2024/01/24 01:47:15;;;;;;;1.75;1.48;;;;;;;;;;4952702;28;20039;-81
2024/01/24 01:49:42;;;;;;;3.80;1.70;;;;;;;;;;4963257;28;20045;-81
2024/01/24 01:52:08;;;;;;;2.63;1.85;;;;;;;;;;4954999;28;20027;-85
2024/01/24 01:54:34;;;;;;;2.15;1.55;;;;;;;;;;4958305;28;20026;-82
2024/01/24 01:57:01;;;;;;;1.95;1.52;;;;;;;;;;4945361;28;20136;-81
2024/01/24 01:59:27;;;;;;;2.35;1.90;;;;;;;;;;4957924;28;20042;-83
2024/01/24 02:01:55;;;;;;;3.83;2.00;;;;;;;;;;4949530;28;20042;-81
2024/01/24 02:04:22;;;;;;;2.83;1.95;;;;;;;;;;4945008;28;20047;-83
2024/01/24 02:06:47;;;;;;;4.25;1.52;;;;;;;;;;4942218;28;20521;-84
2024/01/24 02:09:13;;;;;;;4.00;1.83;;;;;;;;;;4954157;28;20094;-87
2024/01/24 02:11:40;;;;;;;3.28;1.80;;;;;;;;;;4948740;28;20043;-84
2024/01/24 02:14:06;;;;;;;2.83;1.77;;;;;;;;;;4942681;28;20067;-84
2024/01/24 02:16:31;;;;;;;1.98;1.52;;;;;;;;;;4968604;28;20038;-81
2024/01/24 02:18:57;;;;;;;3.55;2.28;;;;;;;;;;4964046;28;20571;-83
2024/01/24 02:21:23;;;;;;;2.78;1.90;;;;;;;;;;4969308;28;20039;-84
2024/01/24 02:23:48;;;;;;;2.65;1.67;;;;;;;;;;4964487;28;20046;-84
2024/01/24 02:26:15;;;;;;;2.10;1.60;;;;;;;;;;4941747;28;20038;-81
2024/01/24 02:28:40;;;;;;;3.13;1.80;;;;;;;;;;4941785;28;20054;-82
2024/01/24 02:31:06;;;;;;;2.67;1.80;;;;;;;;;;4953620;28;20051;-87
2024/01/24 02:33:31;;;;;;;2.00;1.23;;;;;;;;;;4929363;29;20059;-84
2024/01/24 02:35:56;;;;;;;4.28;2.03;;;;;;;;;;4908174;29;20044;-81
2024/01/24 02:38:23;;;;;;;3.38;2.00;;;;;;;;;;4926705;29;20060;-84
2024/01/24 02:40:48;;;;;;;2.35;1.55;;;;;;;;;;4895177;29;20345;-81
2024/01/24 02:43:14;;;;;;;2.10;1.60;;;;;;;;;;4906507;29;20023;-84
2024/01/24 02:45:40;;;;;;;2.38;1.60;;;;;;;;;;4912826;29;21270;-86
2024/01/24 02:48:05;;;;;;;2.75;1.67;;;;;;;;;;4903655;29;20075;-84
2024/01/24 02:50:31;;;;;;;2.17;1.50;;;;;;;;;;4905606;29;20067;-86
2024/01/24 02:52:56;;;;;;;3.10;1.25;;;;;;;;;;4919754;29;20040;-86
2024/01/24 02:55:21;;;;;;;2.33;1.60;;;;;;;;;;4913167;29;20051;-84
2024/01/24 02:57:47;;;;;;;3.30;1.88;;;;;;;;;;4914945;29;20414;-84
2024/01/24 03:00:13;;;;;;;3.05;1.70;;;;;;;;;;4910648;29;20036;-85
2024/01/24 03:02:39;;;;;;;4.47;2.00;;;;;;;;;;4926771;29;20557;-83
2024/01/24 03:05:06;;;;;;;4.15;2.05;;;;;;;;;;4920782;29;20096;-86
2024/01/24 03:07:31;;;;;;;2.60;1.88;;;;;;;;;;4906006;29;20095;-85
2024/01/24 03:09:57;;;;;;;3.03;1.95;;;;;;;;;;4907247;29;20040;-83
2024/01/24 03:12:22;;;;;;;4.25;2.60;;;;;;;;;;4904942;29;20071;-85
2024/01/24 03:14:48;;;;;;;3.13;2.08;;;;;;;;;;4905720;29;20116;-87
2024/01/24 03:17:13;;;;;;;3.15;2.53;;;;;;;;;;4924941;29;20039;-83
2024/01/24 03:19:38;;;;;;;3.03;2.22;;;;;;;;;;4913757;29;20043;-87
2024/01/24 03:22:04;;;;;;;2.40;1.75;;;;;;;;;;4930398;29;20027;-84
2024/01/24 03:24:29;;;;;;;3.78;1.73;;;;;;;;;;4929358;29;20676;-84
2024/01/24 03:26:55;;;;;;;2.17;1.98;;;;;;;;;;4915007;29;20047;-82
2024/01/24 03:29:20;;;;;;;2.90;1.60;;;;;;;;;;4935300;29;20036;-84
2024/01/24 03:31:46;;;;;;;1.50;1.35;;;;;;;;;;4925541;28;20461;-85
2024/01/24 03:34:12;;;;;;;2.80;1.80;;;;;;;;;;4949641;28;20027;-84
2024/01/24 03:36:37;;;;;;;2.65;1.73;;;;;;;;;;4953341;28;20046;-82
2024/01/24 03:39:09;;;;;;;3.72;1.70;;;;;;;;;;4945986;28;20043;-87
2024/01/24 03:41:38;;;;;;;3.15;1.17;;;;;;;;;;4949156;28;20036;-85
2024/01/24 03:44:04;;;;;;;4.85;1.60;;;;;;;;;;4951971;28;20039;-82
2024/01/24 03:46:30;;;;;;;4.50;1.42;;;;;;;;;;4950627;28;20043;-83
2024/01/24 03:48:56;;;;;;;4.55;1.50;;;;;;;;;;4953247;28;20114;-83
2024/01/24 03:51:22;;;;;;;6.68;1.95;;;;;;;;;;4951197;28;20047;-83
2024/01/24 03:53:47;;;;;;;3.42;1.40;;;;;;;;;;4951310;28;20043;-82
2024/01/24 03:56:12;;;;;;;7.30;1.85;;;;;;;;;;4947100;28;21087;-84
2024/01/24 03:58:38;;;;;;;3.72;1.13;;;;;;;;;;4952513;28;20054;-82
2024/01/24 04:01:05;;;;;;;10.82;2.25;;;;;;;;;;4947362;28;20031;-83
2024/01/24 04:03:30;;;;;;;4.28;1.05;;;;;;;;;;4951457;29;20477;-86
2024/01/24 04:05:56;;;;;;;7.70;1.80;;;;;;;;;;4955296;28;20050;-81
2024/01/24 04:08:21;;;;;;;5.03;2.15;;;;;;;;;;4953504;28;20070;-83
2024/01/24 04:10:47;;;;;;;5.80;1.15;;;;;;;;;;4942216;29;20050;-83
2024/01/24 04:13:14;;;;;;;8.43;1.85;;;;;;;;;;4952054;28;20027;-82
2024/01/24 04:15:39;;;;;;;8.25;1.75;;;;;;;;;;4965354;28;20038;-82
2024/01/24 04:18:05;;;;;;;8.85;2.10;;;;;;;;;;4971070;28;20512;-86
2024/01/24 04:20:30;;;;;;;15.57;2.97;;;;;;;;;;4969831;28;20066;-83
2024/01/24 04:22:55;;;;;;;8.77;2.00;;;;;;;;;;4971516;28;20473;-84
2024/01/24 04:25:21;;;;;;;12.82;2.88;;;;;;;;;;4970579;28;20050;-84
2024/01/24 04:27:46;;;;;;;16.20;2.92;;;;;;;;;;4970713;28;20496;-82
2024/01/24 04:30:12;;;;;;;10.52;1.95;;;;;;;;;;4967038;28;20050;-87
2024/01/24 04:32:37;;;;;;;13.88;2.60;;;;;;;;;;4943355;28;20106;-88
2024/01/24 04:35:03;;;;;;;16.88;3.20;;;;;;;;;;4933295;29;20043;-83
2024/01/24 04:37:29;;;;;;;17.70;3.10;;;;;;;;;;4929498;29;20060;-86
2024/01/24 04:39:54;;;;;;;15.85;3.17;;;;;;;;;;4922598;29;20035;-81
2024/01/24 04:42:19;;;;;;;14.80;3.67;;;;;;;;;;4915098;29;20095;-83
2024/01/24 04:44:45;;;;;;;16.73;3.42;;;;;;;;;;4919640;29;20043;-83
2024/01/24 04:47:13;;;;;;;19.40;3.47;;;;;;;;;;4927081;29;20039;-85
2024/01/24 04:49:38;;;;;;;14.98;3.55;;;;;;;;;;4926140;29;20035;-84
2024/01/24 04:52:04;;;;;;;21.85;3.88;;;;;;;;;;4920703;29;20614;-82
2024/01/24 04:54:34;;;;;;;15.95;2.40;;;;;;;;;;4915264;29;20054;-84
2024/01/24 04:57:00;;;;;;;16.95;2.90;;;;;;;;;;4915547;29;20049;-88
2024/01/24 04:59:25;;;;;;;19.17;3.25;;;;;;;;;;4913692;29;20072;-84
2024/01/24 05:01:50;;;;;;;16.73;2.78;;;;;;;;;;4908609;29;20492;-88
2024/01/24 05:04:16;;;;;;;19.95;2.65;;;;;;;;;;4916311;28;20090;-86
2024/01/24 05:06:41;;;;;;;16.92;3.17;;;;;;;;;;4915131;29;20026;-85
2024/01/24 05:09:09;;;;;;;20.10;3.17;;;;;;;;;;4932010;29;20047;-90
2024/01/24 05:11:34;;;;;;;19.15;2.75;;;;;;;;;;4924821;29;20040;-84
2024/01/24 05:14:00;;;;;;;29.83;4.20;;;;;;;;;;4929628;29;20039;-82
2024/01/24 05:16:28;;;;;;;17.73;2.88;;;;;;;;;;4927424;29;20050;-84
2024/01/24 05:18:54;;;;;;;17.33;3.40;;;;;;;;;;4931218;29;20425;-81
2024/01/24 05:21:19;;;;;;;23.05;4.53;;;;;;;;;;4925619;29;20047;-85
2024/01/24 05:23:45;;;;;;;25.38;4.88;;;;;;;;;;4931517;29;20055;-83
2024/01/24 05:26:11;;;;;;;18.25;3.20;;;;;;;;;;4920978;29;20040;-82
2024/01/24 05:28:40;;;;;;;22.08;5.03;;;;;;;;;;4916204;29;20044;-84
2024/01/24 05:31:06;;;;;;;24.25;3.35;;;;;;;;;;4905490;28;20035;-84
2024/01/24 05:33:31;;;;;;;24.00;4.85;;;;;;;;;;4930517;29;20030;-82
2024/01/24 05:35:57;;;;;;;24.40;3.83;;;;;;;;;;4910198;29;20119;-85
2024/01/24 05:38:22;;;;;;;19.17;3.83;;;;;;;;;;4901998;29;20075;-83
2024/01/24 05:40:48;;;;;;;19.10;2.80;;;;;;;;;;4931844;28;20039;-85
2024/01/24 05:43:13;;;;;;;32.80;3.63;;;;;;;;;;4914598;29;20103;-90
2024/01/24 05:45:39;;;;;;;24.52;4.30;;;;;;;;;;4932950;29;20058;-87
2024/01/24 05:48:05;;;;;;;25.13;4.53;;;;;;;;;;4930286;29;20498;-83
2024/01/24 05:50:30;;;;;;;27.58;4.20;;;;;;;;;;4936355;29;20032;-88
2024/01/24 05:52:57;;;;;;;27.88;4.78;;;;;;;;;;4915456;29;20042;-83
2024/01/24 05:55:25;;;;;;;28.95;5.53;;;;;;;;;;4924890;29;20048;-83
2024/01/24 05:57:51;;;;;;;26.65;4.95;;;;;;;;;;4930948;29;20036;-82
2024/01/24 06:00:17;;;;;;;21.58;4.80;;;;;;;;;;4930710;29;20038;-84
2024/01/24 06:02:43;;;;;;;24.50;4.57;;;;;;;;;;4913069;29;20043;-82
2024/01/24 06:05:09;;;;;;;28.58;4.10;;;;;;;;;;4928973;29;20698;-84
2024/01/24 06:07:34;;;;;;;30.60;4.78;;;;;;;;;;4929448;29;20048;-84
2024/01/24 06:10:00;;;;;;;27.55;6.15;;;;;;;;;;4914985;29;20031;-82
2024/01/24 06:12:26;;;;;;;17.30;3.22;;;;;;;;;;4914418;29;20190;-84
2024/01/24 06:14:54;;;;;;;28.05;5.13;;;;;;;;;;4914474;29;20074;-86
2024/01/24 06:17:19;;;;;;;25.75;4.45;;;;;;;;;;4923147;29;21101;-83
2024/01/24 06:19:45;;;;;;;24.80;3.85;;;;;;;;;;4930911;29;20071;-85
2024/01/24 06:22:10;;;;;;;26.40;4.93;;;;;;;;;;4925642;29;20032;-82
2024/01/24 06:24:36;;;;;;;28.77;5.95;;;;;;;;;;4932333;29;20091;-83
2024/01/24 06:27:01;;;;;;;27.08;5.72;;;;;;;;;;4935031;29;20142;-83
2024/01/24 06:29:27;;;;;;;27.63;4.75;;;;;;;;;;4914401;29;20039;-81
2024/01/24 06:31:53;;;;;;;26.98;5.10;;;;;;;;;;4933563;29;20055;-83
2024/01/24 06:34:18;;;;;;;28.00;4.60;;;;;;;;;;4934566;29;20078;-81
2024/01/24 06:36:43;;;;;;;27.90;4.32;;;;;;;;;;4936423;29;20041;-86
2024/01/24 06:39:09;;;;;;;26.25;3.92;;;;;;;;;;4952854;28;20051;-83
2024/01/24 06:41:35;;;;;;;27.30;4.90;;;;;;;;;;4923902;29;20042;-84
2024/01/24 06:44:01;;;;;;;33.47;6.05;;;;;;;;;;4934429;28;20039;-82
2024/01/24 06:46:26;;;;;;;30.77;5.15;;;;;;;;;;4945667;28;20045;-84
2024/01/24 06:48:55;;;;;;;29.13;3.92;;;;;;;;;;4921941;29;20028;-85
2024/01/24 06:51:21;;;;;;;31.08;4.18;;;;;;;;;;4947733;29;20532;-84
2024/01/24 06:53:47;;;;;;;30.42;5.22;;;;;;;;;;4939603;29;20047;-84
2024/01/24 06:56:12;;;;;;;26.50;4.00;;;;;;;;;;4947958;29;20121;-86
2024/01/24 06:58:38;;;;;;;24.00;4.47;;;;;;;;;;4945154;28;20046;-84
2024/01/24 07:01:03;;;;;;;36.75;5.10;;;;;;;;;;4938803;28;20035;-83
2024/01/24 07:03:29;;;;;;;33.67;4.63;;;;;;;;;;4943674;29;20027;-85
2024/01/24 07:05:54;;;;;;;33.28;5.15;;;;;;;;;;4948075;28;20036;-86
2024/01/24 07:08:23;;;;;;;32.85;5.18;;;;;;;;;;4939668;29;20039;-81
2024/01/24 07:10:48;;;;;;;26.38;4.82;;;;;;;;;;4931946;29;20036;-89
2024/01/24 07:13:14;;;;;;;26.60;5.43;;;;;;;;;;4953406;28;20131;-81
2024/01/24 07:15:40;;;;;;;26.00;4.55;;;;;;;;;;4943349;29;20560;-86
2024/01/24 07:18:26;;;;;;;29.30;4.57;;;;;;;;;;4937438;29;20044;-90
2024/01/24 07:20:52;;;;;;;34.30;5.78;;;;;;;;;;4944419;29;20042;-83
2024/01/24 07:23:17;;;;;;;31.83;5.97;;;;;;;;;;4944462;29;20063;-88
2024/01/24 07:25:43;;;;;;;33.30;5.22;;;;;;;;;;4947188;29;20043;-84
2024/01/24 07:28:11;;;;;;;34.83;6.22;;;;;;;;;;4948001;28;20079;-86
2024/01/24 07:30:36;;;;;;;34.97;5.40;;;;;;;;;;4943861;29;20043;-84
2024/01/24 07:33:03;;;;;;;30.17;5.35;;;;;;;;;;4949470;28;20055;-86
2024/01/24 07:35:29;;;;;;;31.20;4.45;;;;;;;;;;4952359;28;20097;-82
2024/01/24 07:37:54;;;;;;;33.72;6.03;;;;;;;;;;4947227;28;20043;-82
2024/01/24 07:40:20;;;;;;;28.85;4.78;;;;;;;;;;4953205;28;20035;-82
2024/01/24 07:42:49;;;;;;;37.63;5.80;;;;;;;;;;4943402;29;20038;-87
2024/01/24 07:45:18;;;;;;;30.70;4.78;;;;;;;;;;4944027;28;20039;-86
2024/01/24 07:47:47;;;;;;;45.75;7.13;;;;;;;;;;4948259;28;20039;-88
2024/01/24 07:50:16;;;;;;;29.20;5.50;;;;;;;;;;4940595;28;20047;-85
2024/01/24 07:52:41;;;;;;;39.28;7.00;;;;;;;;;;4949094;28;20047;-87
2024/01/24 07:55:09;;;;;;;27.60;4.60;;;;;;;;;;4940478;28;20035;-83
2024/01/24 07:57:38;;;;;;;34.90;5.68;;;;;;;;;;4945503;28;20121;-84
2024/01/24 08:00:07;;;;;;;37.38;5.63;;;;;;;;;;4959748;28;20065;-82
2024/01/24 08:02:32;;;;;;;32.35;5.57;;;;;;;;;;4953008;28;20039;-85
2024/01/24 08:04:58;;;;;;;32.85;5.32;;;;;;;;;;4940716;29;20480;-85
2024/01/24 08:07:24;;;;;;;24.67;4.50;;;;;;;;;;4942944;28;20040;-91
2024/01/24 08:09:49;;;;;;;28.23;4.93;;;;;;;;;;4948552;28;20043;-83
2024/01/24 08:12:18;;;;;;;37.30;5.30;;;;;;;;;;4961890;28;20054;-82
2024/01/24 08:14:43;;;;;;;26.83;5.05;;;;;;;;;;4950927;28;20054;-85
2024/01/24 08:17:10;;;;;;;35.28;6.63;;;;;;;;;;4950821;28;20043;-84
2024/01/24 08:19:38;;;;;;;30.67;4.75;;;;;;;;;;4960682;28;20051;-85
2024/01/24 08:22:04;;;;;;;42.75;6.20;;;;;;;;;;4962364;28;20046;-83
2024/01/24 08:24:30;;;;;;;32.40;6.15;;;;;;;;;;4952290;28;20031;-87
2024/01/24 08:26:55;;;;;;;38.75;8.00;;;;;;;;;;4959631;28;20059;-82
2024/01/24 08:29:21;;;;;;;43.85;6.20;;;;;;;;;;4954271;28;20051;-85
2024/01/24 08:31:47;;;;;;;27.10;4.88;;;;;;;;;;4936838;29;20048;-86
2024/01/24 08:34:14;;;;;;;49.10;6.75;;;;;;;;;;4927865;29;20055;-86
2024/01/24 08:36:40;;;;;;;34.63;5.25;;;;;;;;;;4925485;29;20039;-85
2024/01/24 08:39:06;;;;;;;31.65;5.28;;;;;;;;;;4932602;29;20040;-81
2024/01/24 08:41:32;;;;;;;29.23;5.57;;;;;;;;;;4931236;29;20040;-84
2024/01/24 08:44:05;;;;;;;34.92;5.95;;;;;;;;;;4926149;29;20513;-87
2024/01/24 08:46:30;;;;;;;32.95;5.07;;;;;;;;;;4904595;29;20052;-83
2024/01/24 08:48:56;;;;;;;31.45;5.10;;;;;;;;;;4920482;29;20031;-81
2024/01/24 08:51:25;;;;;;;41.13;7.32;;;;;;;;;;4908655;29;20035;-85
2024/01/24 08:53:50;;;;;;;47.65;8.45;;;;;;;;;;4900125;29;20426;-86
2024/01/24 08:56:16;;;;;;;29.88;5.05;;;;;;;;;;4925070;28;20567;-86
2024/01/24 08:58:42;;;;;;;37.28;5.78;;;;;;;;;;4944838;28;20035;-85
2024/01/24 09:01:08;;;;;;;27.48;5.28;;;;;;;;;;4943818;28;20417;-86
2024/01/24 09:03:33;;;;;;;30.52;5.88;;;;;;;;;;4957366;28;20042;-85
2024/01/24 09:06:02;;;;;;;33.88;5.60;;;;;;;;;;4970499;28;20075;-86
2024/01/24 09:08:27;;;;;;;36.45;6.82;;;;;;;;;;4973325;28;20031;-84
2024/01/24 09:10:52;;;;;;;27.65;6.05;;;;;;;;;;4972556;28;20035;-85
2024/01/24 09:13:21;;;;;;;44.45;6.80;;;;;;;;;;4970818;28;20062;-86
2024/01/24 09:15:47;;;;;;;37.55;6.10;;;;;;;;;;4971006;28;20035;-87
2024/01/24 09:18:13;;;;;;;29.98;4.50;;;;;;;;;;4969111;28;20015;-87
2024/01/24 09:20:38;;;;;;;36.17;5.55;;;;;;;;;;4971242;28;20031;-84
2024/01/24 09:23:08;;;;;;;47.65;7.43;;;;;;;;;;4972796;28;20032;-91
2024/01/24 09:25:33;;;;;;;37.47;5.43;;;;;;;;;;4963667;28;20107;-83
2024/01/24 09:27:58;;;;;;;35.60;5.18;;;;;;;;;;4964897;28;20007;-88
2024/01/24 09:30:27;;;;;;;30.88;5.38;;;;;;;;;;4951405;28;20027;-91
2024/01/24 09:32:56;;;;;;;47.83;5.95;;;;;;;;;;4954294;28;20043;-89
2024/01/24 09:35:24;;;;;;;34.13;4.60;;;;;;;;;;4954931;28;20050;-87
2024/01/24 09:37:57;;;;;;;31.38;5.18;;;;;;;;;;4955817;28;20043;-86
2024/01/24 09:40:26;;;;;;;39.38;5.75;;;;;;;;;;4956951;28;20031;-88
2024/01/24 09:42:51;;;;;;;33.85;6.55;;;;;;;;;;4962411;28;20027;-84
2024/01/24 09:45:24;;;;;;;36.17;6.93;;;;;;;;;;4968580;28;20027;-83
2024/01/24 09:47:58;;;;;;;41.15;7.40;;;;;;;;;;4960440;28;20102;-89
2024/01/24 09:50:23;;;;;;;;;;;;;;;;;;4961983;28;20051;-88
2024/01/24 09:52:50;;;;;;;35.53;7.40;;;;;;;;;;4955938;28;19922;-86
2024/01/24 09:55:18;;;;;;;46.00;5.78;;;;;;;;;;4952066;28;20099;-86
2024/01/24 09:57:48;;;;;;;35.10;5.65;;;;;;;;;;4953264;28;20039;-87
2024/01/24 10:00:20;;;;;;;28.80;5.72;;;;;;;;;;4953933;28;20023;-87
2024/01/24 10:02:52;;;;;;;29.17;5.15;;;;;;;;;;4942390;28;20047;-88
2024/01/24 10:05:20;;;;;;;41.42;6.07;;;;;;;;;;4964307;28;20051;-90
2024/01/24 10:07:46;;;;;;;31.25;5.35;;;;;;;;;;4958978;28;20094;-90
2024/01/24 10:10:12;;;;;;;28.77;5.05;;;;;;;;;;4960607;28;20039;-89
2024/01/24 10:12:39;;;;;;;39.50;5.55;;;;;;;;;;4958390;28;20026;-87
2024/01/24 10:15:05;;;;;;;36.53;5.10;;;;;;;;;;4955355;28;20050;-86
2024/01/24 10:17:31;;;;;;;49.22;7.32;;;;;;;;;;4947498;28;20043;-87
2024/01/24 10:20:00;;;;;;;38.40;4.68;;;;;;;;;;4974141;28;20103;-87
2024/01/24 10:22:26;;;;;;;38.83;6.78;;;;;;;;;;4963387;28;20087;-85
2024/01/24 10:24:54;;;;;;;36.78;5.30;;;;;;;;;;4960752;28;20107;-86
2024/01/24 10:27:20;;;;;;;32.17;4.57;;;;;;;;;;4936527;29;20054;-86
2024/01/24 10:29:48;;;;;;;35.13;5.38;;;;;;;;;;4933882;28;20689;-86
2024/01/24 10:32:14;;;;;;;39.28;6.85;;;;;;;;;;4930845;28;20051;-85
2024/01/24 10:34:42;;;;;;;34.30;5.57;;;;;;;;;;4934304;28;20066;-84
2024/01/24 10:37:08;;;;;;;28.52;6.07;;;;;;;;;;4936408;28;20044;-86
2024/01/24 10:39:47;;;;;;;30.80;5.38;;;;;;;;;;4935543;28;20041;-89
2024/01/24 10:42:17;;;;;;;39.20;7.03;;;;;;;;;;4936219;28;20236;-87
2024/01/24 10:44:44;;;;;;;32.70;5.18;;;;;;;;;;4926743;28;20075;-83
2024/01/24 10:47:22;;;;;;;37.88;8.90;;;;;;;;;;4933671;28;20094;-93
2024/01/24 10:49:48;;;;;;;38.22;6.25;;;;;;;;;;4930911;28;20135;-84
2024/01/24 10:52:15;;;;;;;32.35;5.10;;;;;;;;;;4928143;28;20028;-85
2024/01/24 10:54:47;;;;;;;44.60;6.85;;;;;;;;;;4926552;28;20510;-83
2024/01/24 10:57:14;;;;;;;31.00;4.88;;;;;;;;;;4925846;29;20135;-85
2024/01/24 10:59:44;;;;;;;44.17;7.45;;;;;;;;;;4929456;28;20108;-85
2024/01/24 11:02:09;;;;;;;39.10;6.07;;;;;;;;;;4922829;28;20141;-86
2024/01/24 11:04:39;;;;;;;32.42;6.15;;;;;;;;;;4932237;28;20047;-88
2024/01/24 11:07:10;;;;;;;42.88;6.28;;;;;;;;;;4936246;28;20057;-84
2024/01/24 11:09:56;;;;;;;39.95;5.47;;;;;;;;;;4934656;28;20097;-85
2024/01/24 11:12:22;;;;;;;34.35;5.80;;;;;;;;;;4919554;29;20048;-86
2024/01/24 11:14:48;;;;;;;30.80;4.53;;;;;;;;;;4912929;29;20053;-90
2024/01/24 11:17:13;;;;;;;45.55;6.35;;;;;;;;;;4935798;29;20127;-83
2024/01/24 11:19:39;;;;;;;28.58;5.30;;;;;;;;;;4930898;29;20536;-84
2024/01/24 11:22:17;;;;;;;33.95;6.22;;;;;;;;;;4939429;28;20091;-84
2024/01/24 11:24:46;;;;;;;34.67;6.40;;;;;;;;;;4951433;28;20050;-82
2024/01/24 11:27:33;;;;;;;46.63;7.88;;;;;;;;;;4935138;29;20058;-84
2024/01/24 11:30:12;;;;;;;25.75;5.22;;;;;;;;;;4926855;28;20774;-84
2024/01/24 11:32:58;;;;;;;41.15;5.70;;;;;;;;;;4954170;28;20049;-83
2024/01/24 11:35:45;;;;;;;33.13;5.80;;;;;;;;;;4950850;28;20113;-88
2024/01/24 11:38:16;;;;;;;26.23;5.07;;;;;;;;;;4933840;28;20142;-85
2024/01/24 11:40:43;;;;;;;34.00;5.78;;;;;;;;;;4946490;28;20043;-87
2024/01/24 11:43:29;;;;;;;33.85;4.95;;;;;;;;;;4940135;28;20035;-84
2024/01/24 11:46:08;;;;;;;34.83;4.82;;;;;;;;;;4938482;28;20042;-87
2024/01/24 11:48:38;;;;;;;33.63;6.75;;;;;;;;;;4947445;28;20050;-84
2024/01/24 11:51:17;;;;;;;27.70;4.50;;;;;;;;;;4944571;28;20053;-87
2024/01/24 11:53:45;;;;;;;29.90;4.70;;;;;;;;;;4959964;28;20038;-84
2024/01/24 11:56:17;;;;;;;37.55;6.88;;;;;;;;;;4942306;28;20734;-89
2024/01/24 11:58:43;;;;;;;33.05;5.97;;;;;;;;;;4940426;28;20070;-85
2024/01/24 12:01:13;;;;;;;27.58;4.57;;;;;;;;;;4949236;28;20058;-84
2024/01/24 12:03:46;;;;;;;29.38;4.32;;;;;;;;;;4941862;28;20049;-83
2024/01/24 12:06:12;;;;;;;;;;;;;;;;;;4956429;28;20066;-82
2024/01/24 12:08:37;;;;;;;27.77;4.57;;;;;;;;;;4959862;28;19969;-87
2024/01/24 12:11:03;;;;;;;31.05;5.78;;;;;;;;;;4958543;28;20089;-83
2024/01/24 12:13:29;;;;;;;29.73;3.95;;;;;;;;;;4964848;28;20038;-84
2024/01/24 12:16:01;;;;;;;27.40;4.95;;;;;;;;;;4950738;28;20081;-89
2024/01/24 12:18:32;;;;;;;34.58;5.10;;;;;;;;;;4944239;28;20432;-83
2024/01/24 12:20:58;;;;;;;35.08;6.05;;;;;;;;;;4946772;28;20035;-85
2024/01/24 12:23:23;;;;;;;23.83;5.03;;;;;;;;;;4955019;28;20398;-83
2024/01/24 12:25:49;;;;;;;28.98;5.55;;;;;;;;;;4943023;28;20116;-83
2024/01/24 12:28:15;;;;;;;29.58;5.22;;;;;;;;;;4945362;28;20055;-87
2024/01/24 12:30:45;;;;;;;20.67;4.10;;;;;;;;;;4943150;28;20027;-81
2024/01/24 12:33:15;;;;;;;30.23;5.68;;;;;;;;;;4941049;28;20050;-84
2024/01/24 12:35:45;;;;;;;28.20;5.32;;;;;;;;;;4943653;28;20552;-81
2024/01/24 12:38:11;;;;;;;35.05;4.63;;;;;;;;;;4943034;28;20060;-84
2024/01/24 12:40:36;;;;;;;35.03;5.05;;;;;;;;;;4948765;28;20508;-84
2024/01/24 12:43:02;;;;;;;30.05;4.38;;;;;;;;;;4946377;28;20026;-83
2024/01/24 12:45:28;;;;;;;20.30;4.05;;;;;;;;;;4957350;28;20034;-81
2024/01/24 12:47:54;;;;;;;24.70;4.82;;;;;;;;;;4954747;28;20439;-81
2024/01/24 12:50:21;;;;;;;24.85;5.38;;;;;;;;;;4921382;28;20118;-85
2024/01/24 12:52:46;;;;;;;27.42;4.43;;;;;;;;;;4921116;29;20047;-82
2024/01/24 12:55:15;;;;;;;29.02;4.43;;;;;;;;;;4936647;28;20390;-82
2024/01/24 12:57:42;;;;;;;30.75;5.35;;;;;;;;;;4936062;29;20045;-84
2024/01/24 13:00:10;;;;;;;28.02;4.38;;;;;;;;;;4917470;29;20465;-83
2024/01/24 13:02:36;;;;;;;30.45;4.53;;;;;;;;;;4948972;28;20039;-86
2024/01/24 13:05:01;;;;;;;32.25;6.40;;;;;;;;;;4961121;28;20058;-90
2024/01/24 13:07:27;;;;;;;22.95;5.25;;;;;;;;;;4963996;28;20051;-86
2024/01/24 13:09:52;;;;;;;29.55;4.60;;;;;;;;;;4957525;28;20041;-83
2024/01/24 13:12:20;;;;;;;28.65;4.38;;;;;;;;;;4955456;28;20047;-86
2024/01/24 13:14:45;;;;;;;19.48;4.57;;;;;;;;;;4957311;28;20417;-86
2024/01/24 13:17:11;;;;;;;30.88;4.72;;;;;;;;;;4944834;28;20504;-85
2024/01/24 13:19:36;;;;;;;28.67;4.18;;;;;;;;;;4948766;28;20046;-83
2024/01/24 13:22:29;;;;;;;23.35;4.47;;;;;;;;;;4933024;28;20105;-90
2024/01/24 13:25:00;;;;;;;19.75;3.60;;;;;;;;;;4940511;28;20038;-92
2024/01/24 13:30:33;;;;;;;37.83;4.63;;;;;;;;;;4973045;23;20217;-91
2024/01/24 13:33:11;;;;;;;24.90;3.72;;;;;;;;;;4948630;28;20047;-85
2024/01/24 13:35:45;;;;;;;28.85;4.15;;;;;;;;;;4940804;28;20713;-88
2024/01/24 13:38:11;;;;;;;38.35;5.55;;;;;;;;;;4942847;28;20035;-88
2024/01/24 13:40:44;;;;;;;26.67;4.75;;;;;;;;;;4939571;28;20032;-86
2024/01/24 13:43:10;;;;;;;28.25;4.00;;;;;;;;;;4949052;28;20027;-87
2024/01/24 13:45:46;;;;;;;35.05;5.38;;;;;;;;;;4946213;28;20027;-92
2024/01/24 13:48:50;;;;;;;31.02;5.47;;;;;;;;;;4950462;23;20508;-86
2024/01/24 13:52:00;;;;;;;26.10;4.60;;;;;;;;;;4932983;28;20145;-91
2024/01/24 13:55:07;;;;;;;25.75;4.28;;;;;;;;;;4949637;28;20066;-92
2024/01/24 13:58:28;;;;;;;28.63;3.95;;;;;;;;;;4976216;28;20077;-92
2024/01/24 14:06:30;;;;;;;28.83;5.25;;;;;;;;;;4942048;28;20047;-62
2024/01/24 14:08:55;;;;;;;31.08;5.88;;;;;;;;;;4944270;28;20035;-61
2024/01/24 14:11:20;;;;;;;25.88;4.50;;;;;;;;;;4937998;28;20088;-62
2024/01/24 14:13:48;;;;;;;31.73;4.43;;;;;;;;;;4923917;29;20075;-62
2024/01/24 14:16:15;;;;;;;20.92;4.65;;;;;;;;;;4924884;29;20044;-62
2024/01/24 14:18:41;;;;;;;30.17;4.65;;;;;;;;;;4924031;29;20032;-62
2024/01/24 14:21:06;;;;;;;27.27;4.50;;;;;;;;;;4924144;29;20039;-62
2024/01/24 14:23:32;;;;;;;29.45;5.22;;;;;;;;;;4923727;29;20039;-62
2024/01/24 14:25:57;;;;;;;32.85;5.00;;;;;;;;;;4924241;29;20043;-62
2024/01/24 14:28:23;;;;;;;25.45;4.72;;;;;;;;;;4922420;29;20419;-62
2024/01/24 14:30:48;;;;;;;20.77;3.47;;;;;;;;;;4959122;28;20130;-61
2024/01/24 14:33:13;;;;;;;27.45;4.97;;;;;;;;;;4961911;28;20050;-61
2024/01/24 14:35:39;;;;;;;20.33;3.92;;;;;;;;;;4963122;28;20094;-61
2024/01/24 14:38:04;;;;;;;28.77;4.40;;;;;;;;;;4962062;28;20571;-61
2024/01/24 14:40:29;;;;;;;25.42;4.22;;;;;;;;;;4962036;28;20787;-62
2024/01/24 14:42:55;;;;;;;26.35;4.00;;;;;;;;;;4962072;28;20061;-62